sensor_id;sensor_type;location;lat;lon;timestamp;P1;durP1;ratioP1;P2;durP2;ratioP2
4106;SDS011;21906;50.812;7.132;2023-03-13T00:01:09;9.20;;;2.60;;
4106;SDS011;21906;50.812;7.132;2023-03-13T00:03:39;12.57;;;3.50;;
4106;SDS011;21906;50.812;7.132;2023-03-13T00:06:05;8.80;;;2.70;;
4106;SDS011;21906;50.812;7.132;2023-03-13T00:08:31;8.20;;;2.60;;
4106;SDS011;21906;50.812;7.132;2023-03-13T00:10:57;5.80;;;2.60;;
4106;SDS011;21906;50.812;7.132;2023-03-13T00:13:26;11.10;;;2.93;;
4106;SDS011;21906;50.812;7.132;2023-03-13T00:15:58;8.93;;;2.80;;
4106;SDS011;21906;50.812;7.132;2023-03-13T00:18:24;11.43;;;3.60;;
4106;SDS011;21906;50.812;7.132;2023-03-13T00:20:56;11.93;;;3.17;;
4106;SDS011;21906;50.812;7.132;2023-03-13T00:23:32;9.07;;;2.50;;
4106;SDS011;21906;50.812;7.132;2023-03-13T00:26:00;6.30;;;3.67;;
4106;SDS011;21906;50.812;7.132;2023-03-13T00:28:33;8.23;;;3.50;;
4106;SDS011;21906;50.812;7.132;2023-03-13T00:31:04;12.93;;;3.27;;
4106;SDS011;21906;50.812;7.132;2023-03-13T00:33:31;9.63;;;3.30;;
4106;SDS011;21906;50.812;7.132;2023-03-13T00:36:01;9.37;;;2.77;;
4106;SDS011;21906;50.812;7.132;2023-03-13T00:38:29;9.93;;;3.17;;
4106;SDS011;21906;50.812;7.132;2023-03-13T00:41:03;11.50;;;3.37;;
4106;SDS011;21906;50.812;7.132;2023-03-13T00:43:36;12.53;;;3.13;;
4106;SDS011;21906;50.812;7.132;2023-03-13T00:46:02;9.00;;;3.37;;
4106;SDS011;21906;50.812;7.132;2023-03-13T00:48:27;11.07;;;3.30;;
4106;SDS011;21906;50.812;7.132;2023-03-13T00:50:53;9.20;;;2.80;;
4106;SDS011;21906;50.812;7.132;2023-03-13T00:53:19;7.33;;;3.07;;
4106;SDS011;21906;50.812;7.132;2023-03-13T00:55:55;11.30;;;2.83;;
4106;SDS011;21906;50.812;7.132;2023-03-13T00:58:23;10.73;;;2.90;;
4106;SDS011;21906;50.812;7.132;2023-03-13T01:00:50;17.67;;;3.70;;
4106;SDS011;21906;50.812;7.132;2023-03-13T01:03:16;7.93;;;3.23;;
4106;SDS011;21906;50.812;7.132;2023-03-13T01:05:42;9.87;;;3.30;;
4106;SDS011;21906;50.812;7.132;2023-03-13T01:08:08;8.13;;;2.70;;
4106;SDS011;21906;50.812;7.132;2023-03-13T01:10:33;9.47;;;2.90;;
4106;SDS011;21906;50.812;7.132;2023-03-13T01:12:59;10.87;;;3.20;;
4106;SDS011;21906;50.812;7.132;2023-03-13T01:15:25;8.27;;;3.17;;
4106;SDS011;21906;50.812;7.132;2023-03-13T01:17:51;8.30;;;3.03;;
4106;SDS011;21906;50.812;7.132;2023-03-13T01:20:16;10.40;;;3.03;;
4106;SDS011;21906;50.812;7.132;2023-03-13T01:22:42;11.50;;;3.50;;
4106;SDS011;21906;50.812;7.132;2023-03-13T01:25:08;8.80;;;2.60;;
4106;SDS011;21906;50.812;7.132;2023-03-13T01:27:34;15.03;;;3.27;;
4106;SDS011;21906;50.812;7.132;2023-03-13T01:29:59;8.07;;;3.13;;
4106;SDS011;21906;50.812;7.132;2023-03-13T01:32:25;9.80;;;3.80;;
4106;SDS011;21906;50.812;7.132;2023-03-13T01:34:50;10.03;;;2.90;;
4106;SDS011;21906;50.812;7.132;2023-03-13T01:37:16;6.60;;;3.00;;
4106;SDS011;21906;50.812;7.132;2023-03-13T01:39:42;7.07;;;2.80;;
4106;SDS011;21906;50.812;7.132;2023-03-13T01:42:07;8.07;;;2.80;;
4106;SDS011;21906;50.812;7.132;2023-03-13T01:44:48;5.40;;;2.77;;
4106;SDS011;21906;50.812;7.132;2023-03-13T01:47:18;10.50;;;2.70;;
4106;SDS011;21906;50.812;7.132;2023-03-13T01:49:43;12.97;;;3.10;;
4106;SDS011;21906;50.812;7.132;2023-03-13T01:52:12;8.53;;;2.67;;
4106;SDS011;21906;50.812;7.132;2023-03-13T01:54:44;4.50;;;2.60;;
4106;SDS011;21906;50.812;7.132;2023-03-13T01:57:19;6.37;;;2.90;;
4106;SDS011;21906;50.812;7.132;2023-03-13T01:59:51;6.27;;;2.50;;
4106;SDS011;21906;50.812;7.132;2023-03-13T02:02:22;8.47;;;2.50;;
4106;SDS011;21906;50.812;7.132;2023-03-13T02:04:49;5.07;;;2.30;;
4106;SDS011;21906;50.812;7.132;2023-03-13T02:07:22;4.50;;;2.73;;
4106;SDS011;21906;50.812;7.132;2023-03-13T02:10:02;5.27;;;2.30;;
4106;SDS011;21906;50.812;7.132;2023-03-13T02:12:29;7.10;;;2.07;;
4106;SDS011;21906;50.812;7.132;2023-03-13T02:14:58;6.50;;;2.47;;
4106;SDS011;21906;50.812;7.132;2023-03-13T02:17:28;6.00;;;2.30;;
4106;SDS011;21906;50.812;7.132;2023-03-13T02:19:54;6.90;;;2.17;;
4106;SDS011;21906;50.812;7.132;2023-03-13T02:27:34;4.73;;;1.70;;
4106;SDS011;21906;50.812;7.132;2023-03-13T02:30:00;3.60;;;1.70;;
4106;SDS011;21906;50.812;7.132;2023-03-13T02:32:28;2.17;;;1.80;;
4106;SDS011;21906;50.812;7.132;2023-03-13T02:34:57;3.30;;;1.40;;
4106;SDS011;21906;50.812;7.132;2023-03-13T02:37:27;2.47;;;1.60;;
4106;SDS011;21906;50.812;7.132;2023-03-13T02:39:55;3.63;;;1.50;;
4106;SDS011;21906;50.812;7.132;2023-03-13T02:42:24;3.43;;;1.40;;
4106;SDS011;21906;50.812;7.132;2023-03-13T02:44:50;4.07;;;1.40;;
4106;SDS011;21906;50.812;7.132;2023-03-13T02:47:17;1.93;;;1.50;;
4106;SDS011;21906;50.812;7.132;2023-03-13T02:49:44;4.10;;;1.70;;
4106;SDS011;21906;50.812;7.132;2023-03-13T02:52:12;3.00;;;1.60;;
4106;SDS011;21906;50.812;7.132;2023-03-13T02:54:50;2.83;;;1.60;;
4106;SDS011;21906;50.812;7.132;2023-03-13T02:57:20;1.60;;;1.30;;
4106;SDS011;21906;50.812;7.132;2023-03-13T02:59:45;1.60;;;1.30;;
4106;SDS011;21906;50.812;7.132;2023-03-13T03:02:11;2.90;;;1.40;;
4106;SDS011;21906;50.812;7.132;2023-03-13T03:04:36;3.57;;;1.60;;
4106;SDS011;21906;50.812;7.132;2023-03-13T03:07:02;3.10;;;1.53;;
4106;SDS011;21906;50.812;7.132;2023-03-13T03:09:28;1.70;;;1.30;;
4106;SDS011;21906;50.812;7.132;2023-03-13T03:11:53;2.60;;;1.70;;
4106;SDS011;21906;50.812;7.132;2023-03-13T03:14:19;3.17;;;1.30;;
4106;SDS011;21906;50.812;7.132;2023-03-13T03:16:45;2.00;;;1.30;;
4106;SDS011;21906;50.812;7.132;2023-03-13T03:19:10;2.90;;;1.10;;
4106;SDS011;21906;50.812;7.132;2023-03-13T03:21:36;2.00;;;1.10;;
4106;SDS011;21906;50.812;7.132;2023-03-13T03:24:02;1.97;;;1.00;;
4106;SDS011;21906;50.812;7.132;2023-03-13T03:26:28;1.07;;;0.90;;
4106;SDS011;21906;50.812;7.132;2023-03-13T03:28:54;1.50;;;0.90;;
4106;SDS011;21906;50.812;7.132;2023-03-13T03:31:20;2.27;;;1.10;;
4106;SDS011;21906;50.812;7.132;2023-03-13T03:33:45;3.17;;;1.17;;
4106;SDS011;21906;50.812;7.132;2023-03-13T03:36:15;1.30;;;0.83;;
4106;SDS011;21906;50.812;7.132;2023-03-13T03:38:43;2.03;;;0.90;;
4106;SDS011;21906;50.812;7.132;2023-03-13T03:41:10;2.30;;;0.90;;
4106;SDS011;21906;50.812;7.132;2023-03-13T03:43:37;1.57;;;1.10;;
4106;SDS011;21906;50.812;7.132;2023-03-13T03:46:03;1.90;;;0.97;;
4106;SDS011;21906;50.812;7.132;2023-03-13T03:48:29;1.00;;;0.80;;
4106;SDS011;21906;50.812;7.132;2023-03-13T03:50:55;2.57;;;1.47;;
4106;SDS011;21906;50.812;7.132;2023-03-13T03:53:20;1.73;;;0.90;;
4106;SDS011;21906;50.812;7.132;2023-03-13T03:55:46;1.30;;;0.90;;
4106;SDS011;21906;50.812;7.132;2023-03-13T03:58:12;2.50;;;1.10;;
4106;SDS011;21906;50.812;7.132;2023-03-13T04:00:37;0.90;;;0.80;;
4106;SDS011;21906;50.812;7.132;2023-03-13T04:03:03;1.23;;;0.93;;
4106;SDS011;21906;50.812;7.132;2023-03-13T04:05:29;1.00;;;0.80;;
4106;SDS011;21906;50.812;7.132;2023-03-13T04:07:54;1.30;;;0.97;;
4106;SDS011;21906;50.812;7.132;2023-03-13T04:10:20;0.90;;;0.80;;
4106;SDS011;21906;50.812;7.132;2023-03-13T04:12:46;1.00;;;0.80;;
4106;SDS011;21906;50.812;7.132;2023-03-13T04:15:12;1.10;;;0.80;;
4106;SDS011;21906;50.812;7.132;2023-03-13T04:17:38;2.13;;;0.90;;
4106;SDS011;21906;50.812;7.132;2023-03-13T04:20:03;1.40;;;0.90;;
4106;SDS011;21906;50.812;7.132;2023-03-13T04:22:31;0.90;;;0.80;;
4106;SDS011;21906;50.812;7.132;2023-03-13T04:24:57;2.10;;;1.00;;
4106;SDS011;21906;50.812;7.132;2023-03-13T04:27:22;0.87;;;0.77;;
4106;SDS011;21906;50.812;7.132;2023-03-13T04:29:48;1.40;;;0.83;;
4106;SDS011;21906;50.812;7.132;2023-03-13T04:32:13;1.03;;;0.93;;
4106;SDS011;21906;50.812;7.132;2023-03-13T04:34:39;1.00;;;0.80;;
4106;SDS011;21906;50.812;7.132;2023-03-13T04:37:04;1.23;;;1.10;;
4106;SDS011;21906;50.812;7.132;2023-03-13T04:39:30;2.20;;;0.90;;
4106;SDS011;21906;50.812;7.132;2023-03-13T04:41:56;1.10;;;0.77;;
4106;SDS011;21906;50.812;7.132;2023-03-13T04:44:21;1.30;;;0.80;;
4106;SDS011;21906;50.812;7.132;2023-03-13T04:46:47;1.40;;;1.30;;
4106;SDS011;21906;50.812;7.132;2023-03-13T04:49:14;1.00;;;0.73;;
4106;SDS011;21906;50.812;7.132;2023-03-13T04:51:41;1.83;;;0.73;;
4106;SDS011;21906;50.812;7.132;2023-03-13T04:54:07;0.97;;;0.70;;
4106;SDS011;21906;50.812;7.132;2023-03-13T04:56:33;0.93;;;0.70;;
4106;SDS011;21906;50.812;7.132;2023-03-13T04:58:59;1.20;;;0.70;;
4106;SDS011;21906;50.812;7.132;2023-03-13T05:01:25;1.77;;;0.80;;
4106;SDS011;21906;50.812;7.132;2023-03-13T05:03:50;0.80;;;0.70;;
4106;SDS011;21906;50.812;7.132;2023-03-13T05:06:16;1.20;;;0.70;;
4106;SDS011;21906;50.812;7.132;2023-03-13T05:08:42;1.03;;;0.77;;
4106;SDS011;21906;50.812;7.132;2023-03-13T05:11:07;1.43;;;0.80;;
4106;SDS011;21906;50.812;7.132;2023-03-13T05:13:33;1.10;;;0.80;;
4106;SDS011;21906;50.812;7.132;2023-03-13T05:15:59;1.20;;;0.80;;
4106;SDS011;21906;50.812;7.132;2023-03-13T05:18:24;1.10;;;0.80;;
4106;SDS011;21906;50.812;7.132;2023-03-13T05:20:50;1.80;;;0.80;;
4106;SDS011;21906;50.812;7.132;2023-03-13T05:23:16;1.53;;;0.80;;
4106;SDS011;21906;50.812;7.132;2023-03-13T05:25:41;0.90;;;0.80;;
4106;SDS011;21906;50.812;7.132;2023-03-13T05:28:07;1.03;;;0.73;;
4106;SDS011;21906;50.812;7.132;2023-03-13T05:30:33;0.90;;;0.63;;
4106;SDS011;21906;50.812;7.132;2023-03-13T05:32:58;0.90;;;0.70;;
4106;SDS011;21906;50.812;7.132;2023-03-13T05:35:24;1.00;;;0.80;;
4106;SDS011;21906;50.812;7.132;2023-03-13T05:37:49;0.90;;;0.70;;
4106;SDS011;21906;50.812;7.132;2023-03-13T05:40:15;1.63;;;0.80;;
4106;SDS011;21906;50.812;7.132;2023-03-13T05:42:41;1.10;;;0.80;;
4106;SDS011;21906;50.812;7.132;2023-03-13T05:45:06;0.80;;;0.70;;
4106;SDS011;21906;50.812;7.132;2023-03-13T05:47:33;0.80;;;0.70;;
4106;SDS011;21906;50.812;7.132;2023-03-13T05:50:00;0.90;;;0.80;;
4106;SDS011;21906;50.812;7.132;2023-03-13T05:52:25;0.87;;;0.67;;
4106;SDS011;21906;50.812;7.132;2023-03-13T05:54:51;0.80;;;0.70;;
4106;SDS011;21906;50.812;7.132;2023-03-13T05:57:17;0.90;;;0.70;;
4106;SDS011;21906;50.812;7.132;2023-03-13T05:59:43;0.97;;;0.87;;
4106;SDS011;21906;50.812;7.132;2023-03-13T06:02:08;1.43;;;0.90;;
4106;SDS011;21906;50.812;7.132;2023-03-13T06:04:35;1.00;;;0.90;;
4106;SDS011;21906;50.812;7.132;2023-03-13T06:07:00;1.00;;;0.90;;
4106;SDS011;21906;50.812;7.132;2023-03-13T06:09:26;1.10;;;1.00;;
4106;SDS011;21906;50.812;7.132;2023-03-13T06:11:52;1.27;;;1.00;;
4106;SDS011;21906;50.812;7.132;2023-03-13T06:14:18;1.10;;;1.00;;
4106;SDS011;21906;50.812;7.132;2023-03-13T06:16:44;1.20;;;0.80;;
4106;SDS011;21906;50.812;7.132;2023-03-13T06:19:09;1.03;;;0.90;;
4106;SDS011;21906;50.812;7.132;2023-03-13T06:21:35;1.07;;;0.80;;
4106;SDS011;21906;50.812;7.132;2023-03-13T06:24:01;0.90;;;0.80;;
4106;SDS011;21906;50.812;7.132;2023-03-13T06:26:27;0.93;;;0.70;;
4106;SDS011;21906;50.812;7.132;2023-03-13T06:28:53;1.00;;;0.80;;
4106;SDS011;21906;50.812;7.132;2023-03-13T06:31:19;2.80;;;0.90;;
4106;SDS011;21906;50.812;7.132;2023-03-13T06:33:44;1.00;;;0.80;;
4106;SDS011;21906;50.812;7.132;2023-03-13T06:36:10;1.00;;;0.80;;
4106;SDS011;21906;50.812;7.132;2023-03-13T06:38:36;1.37;;;1.07;;
4106;SDS011;21906;50.812;7.132;2023-03-13T06:41:02;1.00;;;0.90;;
4106;SDS011;21906;50.812;7.132;2023-03-13T06:43:28;1.10;;;1.00;;
4106;SDS011;21906;50.812;7.132;2023-03-13T06:45:54;1.10;;;1.00;;
4106;SDS011;21906;50.812;7.132;2023-03-13T06:48:20;1.00;;;0.90;;
4106;SDS011;21906;50.812;7.132;2023-03-13T06:50:47;1.20;;;1.00;;
4106;SDS011;21906;50.812;7.132;2023-03-13T06:53:17;1.17;;;1.07;;
4106;SDS011;21906;50.812;7.132;2023-03-13T06:55:44;1.30;;;1.20;;
4106;SDS011;21906;50.812;7.132;2023-03-13T06:58:10;1.50;;;1.40;;
4106;SDS011;21906;50.812;7.132;2023-03-13T07:00:36;1.00;;;0.90;;
4106;SDS011;21906;50.812;7.132;2023-03-13T07:03:04;1.50;;;1.40;;
4106;SDS011;21906;50.812;7.132;2023-03-13T07:05:29;1.30;;;1.20;;
4106;SDS011;21906;50.812;7.132;2023-03-13T07:07:55;1.40;;;1.30;;
4106;SDS011;21906;50.812;7.132;2023-03-13T07:10:21;2.30;;;1.40;;
4106;SDS011;21906;50.812;7.132;2023-03-13T07:12:46;2.13;;;1.63;;
4106;SDS011;21906;50.812;7.132;2023-03-13T07:15:12;2.40;;;1.80;;
4106;SDS011;21906;50.812;7.132;2023-03-13T07:17:38;1.93;;;1.43;;
4106;SDS011;21906;50.812;7.132;2023-03-13T07:20:04;1.57;;;1.47;;
4106;SDS011;21906;50.812;7.132;2023-03-13T07:22:34;1.67;;;1.57;;
4106;SDS011;21906;50.812;7.132;2023-03-13T07:25:00;2.40;;;1.60;;
4106;SDS011;21906;50.812;7.132;2023-03-13T07:27:26;2.40;;;1.67;;
4106;SDS011;21906;50.812;7.132;2023-03-13T07:29:52;4.37;;;2.27;;
4106;SDS011;21906;50.812;7.132;2023-03-13T07:32:18;2.97;;;2.23;;
4106;SDS011;21906;50.812;7.132;2023-03-13T07:34:44;2.77;;;2.20;;
4106;SDS011;21906;50.812;7.132;2023-03-13T07:37:11;2.37;;;2.10;;
4106;SDS011;21906;50.812;7.132;2023-03-13T07:39:37;2.30;;;2.10;;
4106;SDS011;21906;50.812;7.132;2023-03-13T07:42:03;5.17;;;2.40;;
4106;SDS011;21906;50.812;7.132;2023-03-13T07:44:29;5.40;;;2.33;;
4106;SDS011;21906;50.812;7.132;2023-03-13T07:46:58;3.30;;;2.80;;
4106;SDS011;21906;50.812;7.132;2023-03-13T07:49:24;3.57;;;2.40;;
4106;SDS011;21906;50.812;7.132;2023-03-13T07:51:50;2.83;;;2.53;;
4106;SDS011;21906;50.812;7.132;2023-03-13T07:54:16;2.83;;;2.27;;
4106;SDS011;21906;50.812;7.132;2023-03-13T07:56:42;4.83;;;2.60;;
4106;SDS011;21906;50.812;7.132;2023-03-13T07:59:08;3.10;;;2.30;;
4106;SDS011;21906;50.812;7.132;2023-03-13T08:01:35;2.40;;;2.20;;
4106;SDS011;21906;50.812;7.132;2023-03-13T08:04:01;2.87;;;2.60;;
4106;SDS011;21906;50.812;7.132;2023-03-13T08:06:32;3.93;;;2.10;;
4106;SDS011;21906;50.812;7.132;2023-03-13T08:09:02;2.70;;;2.03;;
4106;SDS011;21906;50.812;7.132;2023-03-13T08:11:28;5.13;;;2.20;;
4106;SDS011;21906;50.812;7.132;2023-03-13T08:13:54;2.63;;;2.20;;
4106;SDS011;21906;50.812;7.132;2023-03-13T08:16:27;2.47;;;2.00;;
4106;SDS011;21906;50.812;7.132;2023-03-13T08:18:58;2.80;;;2.60;;
4106;SDS011;21906;50.812;7.132;2023-03-13T08:21:26;2.37;;;2.17;;
4106;SDS011;21906;50.812;7.132;2023-03-13T08:24:00;2.40;;;2.20;;
4106;SDS011;21906;50.812;7.132;2023-03-13T08:26:30;3.20;;;2.50;;
4106;SDS011;21906;50.812;7.132;2023-03-13T08:29:01;2.70;;;2.37;;
4106;SDS011;21906;50.812;7.132;2023-03-13T08:31:41;2.80;;;2.30;;
4106;SDS011;21906;50.812;7.132;2023-03-13T08:34:12;2.53;;;2.33;;
4106;SDS011;21906;50.812;7.132;2023-03-13T08:36:39;2.50;;;2.30;;
4106;SDS011;21906;50.812;7.132;2023-03-13T08:39:08;2.93;;;2.40;;
4106;SDS011;21906;50.812;7.132;2023-03-13T08:41:38;2.93;;;2.67;;
4106;SDS011;21906;50.812;7.132;2023-03-13T08:44:09;3.63;;;2.63;;
4106;SDS011;21906;50.812;7.132;2023-03-13T08:46:37;5.30;;;2.60;;
4106;SDS011;21906;50.812;7.132;2023-03-13T08:49:05;4.60;;;2.90;;
4106;SDS011;21906;50.812;7.132;2023-03-13T08:51:32;2.70;;;2.50;;
4106;SDS011;21906;50.812;7.132;2023-03-13T08:53:59;2.77;;;2.57;;
4106;SDS011;21906;50.812;7.132;2023-03-13T08:56:28;2.60;;;2.40;;
4106;SDS011;21906;50.812;7.132;2023-03-13T08:58:59;4.30;;;2.97;;
4106;SDS011;21906;50.812;7.132;2023-03-13T09:01:28;3.37;;;2.73;;
4106;SDS011;21906;50.812;7.132;2023-03-13T09:03:55;2.93;;;2.63;;
4106;SDS011;21906;50.812;7.132;2023-03-13T09:06:22;4.63;;;2.50;;
4106;SDS011;21906;50.812;7.132;2023-03-13T09:08:48;2.60;;;2.40;;
4106;SDS011;21906;50.812;7.132;2023-03-13T09:11:16;3.40;;;3.00;;
4106;SDS011;21906;50.812;7.132;2023-03-13T09:13:43;4.77;;;3.07;;
4106;SDS011;21906;50.812;7.132;2023-03-13T09:16:14;2.97;;;2.67;;
4106;SDS011;21906;50.812;7.132;2023-03-13T09:18:43;4.73;;;2.70;;
4106;SDS011;21906;50.812;7.132;2023-03-13T09:21:11;2.50;;;2.30;;
4106;SDS011;21906;50.812;7.132;2023-03-13T09:23:39;5.13;;;2.60;;
4106;SDS011;21906;50.812;7.132;2023-03-13T09:26:05;2.83;;;2.27;;
4106;SDS011;21906;50.812;7.132;2023-03-13T09:28:32;3.83;;;2.13;;
4106;SDS011;21906;50.812;7.132;2023-03-13T09:31:05;2.00;;;1.90;;
4106;SDS011;21906;50.812;7.132;2023-03-13T09:33:43;3.37;;;2.23;;
4106;SDS011;21906;50.812;7.132;2023-03-13T09:36:11;2.93;;;2.10;;
4106;SDS011;21906;50.812;7.132;2023-03-13T09:38:37;1.87;;;1.77;;
4106;SDS011;21906;50.812;7.132;2023-03-13T09:41:13;1.93;;;1.83;;
4106;SDS011;21906;50.812;7.132;2023-03-13T09:43:52;2.20;;;2.00;;
4106;SDS011;21906;50.812;7.132;2023-03-13T09:46:47;1.97;;;1.87;;
4106;SDS011;21906;50.812;7.132;2023-03-13T09:52:01;1.80;;;1.70;;
4106;SDS011;21906;50.812;7.132;2023-03-13T09:54:37;2.50;;;2.00;;
4106;SDS011;21906;50.812;7.132;2023-03-13T09:57:29;2.60;;;1.80;;
4106;SDS011;21906;50.812;7.132;2023-03-13T10:00:12;2.07;;;1.70;;
4106;SDS011;21906;50.812;7.132;2023-03-13T10:03:01;2.30;;;1.83;;
4106;SDS011;21906;50.812;7.132;2023-03-13T10:05:38;2.00;;;1.70;;
4106;SDS011;21906;50.812;7.132;2023-03-13T10:08:14;1.67;;;1.57;;
4106;SDS011;21906;50.812;7.132;2023-03-13T10:10:43;1.60;;;1.50;;
4106;SDS011;21906;50.812;7.132;2023-03-13T10:13:41;2.23;;;2.10;;
4106;SDS011;21906;50.812;7.132;2023-03-13T10:16:10;2.43;;;1.70;;
4106;SDS011;21906;50.812;7.132;2023-03-13T10:18:46;2.57;;;1.67;;
4106;SDS011;21906;50.812;7.132;2023-03-13T10:21:18;1.83;;;1.70;;
4106;SDS011;21906;50.812;7.132;2023-03-13T10:23:56;2.10;;;1.90;;
4106;SDS011;21906;50.812;7.132;2023-03-13T10:26:31;2.80;;;1.80;;
4106;SDS011;21906;50.812;7.132;2023-03-13T10:29:04;2.10;;;2.00;;
4106;SDS011;21906;50.812;7.132;2023-03-13T10:31:41;2.53;;;1.87;;
4106;SDS011;21906;50.812;7.132;2023-03-13T10:34:14;2.20;;;2.10;;
4106;SDS011;21906;50.812;7.132;2023-03-13T10:36:43;1.90;;;1.50;;
4106;SDS011;21906;50.812;7.132;2023-03-13T10:39:17;2.20;;;2.00;;
4106;SDS011;21906;50.812;7.132;2023-03-13T10:41:45;1.90;;;1.80;;
4106;SDS011;21906;50.812;7.132;2023-03-13T10:44:19;3.63;;;1.97;;
4106;SDS011;21906;50.812;7.132;2023-03-13T10:46:48;1.90;;;1.80;;
4106;SDS011;21906;50.812;7.132;2023-03-13T10:49:19;2.10;;;1.90;;
4106;SDS011;21906;50.812;7.132;2023-03-13T10:51:48;2.20;;;1.80;;
4106;SDS011;21906;50.812;7.132;2023-03-13T10:54:21;2.40;;;1.67;;
4106;SDS011;21906;50.812;7.132;2023-03-13T10:56:51;3.20;;;1.90;;
4106;SDS011;21906;50.812;7.132;2023-03-13T10:59:32;2.10;;;2.00;;
4106;SDS011;21906;50.812;7.132;2023-03-13T11:02:18;1.90;;;1.80;;
4106;SDS011;21906;50.812;7.132;2023-03-13T11:04:55;1.70;;;1.60;;
4106;SDS011;21906;50.812;7.132;2023-03-13T11:07:36;1.90;;;1.70;;
4106;SDS011;21906;50.812;7.132;2023-03-13T11:10:17;1.57;;;1.47;;
4106;SDS011;21906;50.812;7.132;2023-03-13T11:12:50;2.07;;;1.50;;
4106;SDS011;21906;50.812;7.132;2023-03-13T11:15:31;1.67;;;1.57;;
4106;SDS011;21906;50.812;7.132;2023-03-13T11:18:21;1.77;;;1.20;;
4106;SDS011;21906;50.812;7.132;2023-03-13T11:21:07;1.30;;;1.20;;
4106;SDS011;21906;50.812;7.132;2023-03-13T11:23:49;1.60;;;1.30;;
4106;SDS011;21906;50.812;7.132;2023-03-13T11:26:39;1.73;;;1.63;;
4106;SDS011;21906;50.812;7.132;2023-03-13T11:29:24;1.30;;;1.20;;
4106;SDS011;21906;50.812;7.132;2023-03-13T11:32:02;1.30;;;1.10;;
4106;SDS011;21906;50.812;7.132;2023-03-13T11:34:44;1.00;;;0.90;;
4106;SDS011;21906;50.812;7.132;2023-03-13T11:37:18;1.37;;;1.27;;
4106;SDS011;21906;50.812;7.132;2023-03-13T11:39:49;1.00;;;0.90;;
4106;SDS011;21906;50.812;7.132;2023-03-13T11:56:51;1.67;;;0.80;;
4106;SDS011;21906;50.812;7.132;2023-03-13T12:02:21;0.97;;;0.80;;
4106;SDS011;21906;50.812;7.132;2023-03-13T12:05:00;1.20;;;0.80;;
4106;SDS011;21906;50.812;7.132;2023-03-13T12:10:24;0.90;;;0.80;;
4106;SDS011;21906;50.812;7.132;2023-03-13T12:13:20;1.30;;;0.87;;
4106;SDS011;21906;50.812;7.132;2023-03-13T12:15:53;1.10;;;1.00;;
4106;SDS011;21906;50.812;7.132;2023-03-13T12:18:31;0.90;;;0.80;;
4106;SDS011;21906;50.812;7.132;2023-03-13T12:21:12;1.00;;;0.90;;
4106;SDS011;21906;50.812;7.132;2023-03-13T12:24:03;1.83;;;0.90;;
4106;SDS011;21906;50.812;7.132;2023-03-13T12:31:59;1.30;;;1.10;;
4106;SDS011;21906;50.812;7.132;2023-03-13T12:45:46;1.07;;;0.97;;
4106;SDS011;21906;50.812;7.132;2023-03-13T12:59:35;1.70;;;1.30;;
4106;SDS011;21906;50.812;7.132;2023-03-13T13:02:13;1.40;;;1.30;;
4106;SDS011;21906;50.812;7.132;2023-03-13T13:04:47;1.40;;;1.30;;
4106;SDS011;21906;50.812;7.132;2023-03-13T13:07:22;1.57;;;1.30;;
4106;SDS011;21906;50.812;7.132;2023-03-13T13:12:35;1.70;;;1.37;;
4106;SDS011;21906;50.812;7.132;2023-03-13T13:15:19;1.37;;;1.27;;
4106;SDS011;21906;50.812;7.132;2023-03-13T13:20:30;1.40;;;1.30;;
4106;SDS011;21906;50.812;7.132;2023-03-13T13:25:52;1.93;;;1.27;;
4106;SDS011;21906;50.812;7.132;2023-03-13T13:28:23;1.67;;;1.57;;
4106;SDS011;21906;50.812;7.132;2023-03-13T13:30:56;2.33;;;1.20;;
4106;SDS011;21906;50.812;7.132;2023-03-13T13:33:33;1.50;;;1.40;;
4106;SDS011;21906;50.812;7.132;2023-03-13T13:38:45;1.30;;;1.20;;
4106;SDS011;21906;50.812;7.132;2023-03-13T13:43:40;1.80;;;1.20;;
4106;SDS011;21906;50.812;7.132;2023-03-13T13:51:35;1.20;;;1.10;;
4106;SDS011;21906;50.812;7.132;2023-03-13T13:57:19;1.50;;;1.37;;
4106;SDS011;21906;50.812;7.132;2023-03-13T13:59:55;1.20;;;1.10;;
4106;SDS011;21906;50.812;7.132;2023-03-13T14:02:51;1.23;;;1.10;;
4106;SDS011;21906;50.812;7.132;2023-03-13T14:07:55;1.00;;;0.90;;
4106;SDS011;21906;50.812;7.132;2023-03-13T14:10:39;1.10;;;1.00;;
4106;SDS011;21906;50.812;7.132;2023-03-13T14:13:13;1.30;;;1.20;;
4106;SDS011;21906;50.812;7.132;2023-03-13T14:15:45;1.17;;;1.07;;
4106;SDS011;21906;50.812;7.132;2023-03-13T14:18:28;1.83;;;1.10;;
4106;SDS011;21906;50.812;7.132;2023-03-13T14:21:02;1.20;;;1.00;;
4106;SDS011;21906;50.812;7.132;2023-03-13T14:23:41;1.10;;;1.00;;
4106;SDS011;21906;50.812;7.132;2023-03-13T14:28:56;0.93;;;0.70;;
4106;SDS011;21906;50.812;7.132;2023-03-13T14:31:34;1.00;;;0.90;;
4106;SDS011;21906;50.812;7.132;2023-03-13T14:34:04;0.90;;;0.80;;
4106;SDS011;21906;50.812;7.132;2023-03-13T14:39:34;1.40;;;0.90;;
4106;SDS011;21906;50.812;7.132;2023-03-13T14:42:03;2.30;;;1.03;;
4106;SDS011;21906;50.812;7.132;2023-03-13T14:44:40;2.70;;;0.80;;
4106;SDS011;21906;50.812;7.132;2023-03-13T14:47:15;0.80;;;0.60;;
4106;SDS011;21906;50.812;7.132;2023-03-13T14:49:54;1.10;;;0.77;;
4106;SDS011;21906;50.812;7.132;2023-03-13T14:52:25;1.00;;;0.90;;
4106;SDS011;21906;50.812;7.132;2023-03-13T14:54:56;1.00;;;0.90;;
4106;SDS011;21906;50.812;7.132;2023-03-13T14:57:26;0.80;;;0.70;;
4106;SDS011;21906;50.812;7.132;2023-03-13T14:59:53;1.00;;;0.83;;
4106;SDS011;21906;50.812;7.132;2023-03-13T15:04:53;1.50;;;0.80;;
4106;SDS011;21906;50.812;7.132;2023-03-13T15:07:46;3.23;;;0.80;;
4106;SDS011;21906;50.812;7.132;2023-03-13T15:10:31;0.80;;;0.80;;
4106;SDS011;21906;50.812;7.132;2023-03-13T15:13:15;1.73;;;0.90;;
4106;SDS011;21906;50.812;7.132;2023-03-13T15:15:48;0.80;;;0.80;;
4106;SDS011;21906;50.812;7.132;2023-03-13T15:18:21;1.20;;;1.10;;
4106;SDS011;21906;50.812;7.132;2023-03-13T15:23:48;1.03;;;0.93;;
4106;SDS011;21906;50.812;7.132;2023-03-13T15:26:17;1.20;;;1.00;;
4106;SDS011;21906;50.812;7.132;2023-03-13T15:28:43;1.10;;;1.00;;
4106;SDS011;21906;50.812;7.132;2023-03-13T15:31:13;1.20;;;1.10;;
4106;SDS011;21906;50.812;7.132;2023-03-13T15:33:40;1.73;;;1.20;;
4106;SDS011;21906;50.812;7.132;2023-03-13T15:36:08;4.03;;;1.20;;
4106;SDS011;21906;50.812;7.132;2023-03-13T15:38:35;1.20;;;1.10;;
4106;SDS011;21906;50.812;7.132;2023-03-13T15:41:02;1.23;;;1.00;;
4106;SDS011;21906;50.812;7.132;2023-03-13T15:43:28;1.10;;;1.00;;
4106;SDS011;21906;50.812;7.132;2023-03-13T15:45:55;1.50;;;1.30;;
4106;SDS011;21906;50.812;7.132;2023-03-13T15:48:24;1.57;;;1.20;;
4106;SDS011;21906;50.812;7.132;2023-03-13T15:50:53;1.30;;;1.20;;
4106;SDS011;21906;50.812;7.132;2023-03-13T15:53:29;2.40;;;1.10;;
4106;SDS011;21906;50.812;7.132;2023-03-13T15:55:58;1.47;;;1.20;;
4106;SDS011;21906;50.812;7.132;2023-03-13T15:58:27;1.50;;;1.40;;
4106;SDS011;21906;50.812;7.132;2023-03-13T16:00:54;1.20;;;1.10;;
4106;SDS011;21906;50.812;7.132;2023-03-13T16:03:24;1.87;;;1.30;;
4106;SDS011;21906;50.812;7.132;2023-03-13T16:05:53;1.47;;;1.37;;
4106;SDS011;21906;50.812;7.132;2023-03-13T16:08:24;2.40;;;1.30;;
4106;SDS011;21906;50.812;7.132;2023-03-13T16:10:52;1.97;;;1.43;;
4106;SDS011;21906;50.812;7.132;2023-03-13T16:13:19;2.20;;;1.40;;
4106;SDS011;21906;50.812;7.132;2023-03-13T16:15:46;1.40;;;1.30;;
4106;SDS011;21906;50.812;7.132;2023-03-13T16:18:19;1.90;;;1.20;;
4106;SDS011;21906;50.812;7.132;2023-03-13T16:20:50;1.73;;;1.63;;
4106;SDS011;21906;50.812;7.132;2023-03-13T16:23:17;2.30;;;1.33;;
4106;SDS011;21906;50.812;7.132;2023-03-13T16:25:44;1.40;;;1.17;;
4106;SDS011;21906;50.812;7.132;2023-03-13T16:28:12;2.10;;;1.20;;
4106;SDS011;21906;50.812;7.132;2023-03-13T16:30:39;1.37;;;1.27;;
4106;SDS011;21906;50.812;7.132;2023-03-13T16:33:08;1.50;;;1.30;;
4106;SDS011;21906;50.812;7.132;2023-03-13T16:35:35;1.70;;;1.37;;
4106;SDS011;21906;50.812;7.132;2023-03-13T16:38:01;2.13;;;1.33;;
4106;SDS011;21906;50.812;7.132;2023-03-13T16:40:29;2.27;;;1.33;;
4106;SDS011;21906;50.812;7.132;2023-03-13T16:42:56;2.13;;;1.20;;
4106;SDS011;21906;50.812;7.132;2023-03-13T16:45:23;1.70;;;1.47;;
4106;SDS011;21906;50.812;7.132;2023-03-13T16:47:49;1.77;;;1.47;;